Time;durP1;ratioP1;P1;durP2;ratioP2;P2;SDS_P1;SDS_P2;PMS_P1;PMS_P2;Temp;Humidity;BMP_temperature;BMP_pressure;BME280_temperature;BME280_humidity;BME280_pressure;Samples;Min_cycle;Max_cycle;Signal;HPM_P1;HPM_P2
2021/07/01 00:01:53;;;;;;;5.43;0.82;;;20.40;87.10;;;;;;5048747;28;20021;-81
2021/07/01 00:04:19;;;;;;;4.25;0.88;;;20.30;86.10;;;;;;5047527;28;20278;-81
2021/07/01 00:06:45;;;;;;;3.35;1.00;;;20.30;85.30;;;;;;5048609;28;20161;-81
2021/07/01 00:09:15;;;;;;;6.97;0.90;;;20.30;84.40;;;;;;5047460;28;20058;-81
2021/07/01 00:11:45;;;;;;;0.98;0.43;;;20.30;84.10;;;;;;5048305;28;20017;-81
2021/07/01 00:14:12;;;;;;;2.05;0.70;;;20.30;84.20;;;;;;5047360;28;20033;-82
2021/07/01 00:16:38;;;;;;;1.98;0.63;;;20.30;84.90;;;;;;5030859;28;20033;-82
2021/07/01 00:19:05;;;;;;;3.75;0.60;;;20.20;85.60;;;;;;5030626;28;20033;-81
2021/07/01 00:21:31;;;;;;;2.20;0.60;;;20.10;85.90;;;;;;5030552;28;20025;-81
2021/07/01 00:23:57;;;;;;;3.88;0.77;;;20.10;86.00;;;;;;5048416;28;20111;-81
2021/07/01 00:26:22;;;;;;;5.13;0.65;;;20.10;86.00;;;;;;5046903;28;20064;-79
2021/07/01 00:28:48;;;;;;;2.75;0.60;;;20.00;85.30;;;;;;5048284;28;20033;-78
2021/07/01 00:31:14;;;;;;;2.92;1.05;;;20.00;84.90;;;;;;5048150;28;20464;-81
2021/07/01 00:33:39;;;;;;;1.70;0.50;;;20.00;84.10;;;;;;5048559;28;20036;-81
2021/07/01 00:36:05;;;;;;;2.67;0.65;;;19.90;83.90;;;;;;5034207;28;20044;-81
2021/07/01 00:38:30;;;;;;;5.15;0.60;;;19.90;83.10;;;;;;5034670;28;20033;-80
2021/07/01 00:40:56;;;;;;;2.25;0.60;;;19.90;82.90;;;;;;5051965;28;20021;-80
2021/07/01 00:43:23;;;;;;;1.42;0.52;;;19.90;82.30;;;;;;5050675;28;20128;-80
2021/07/01 00:45:52;;;;;;;1.58;0.50;;;19.90;81.90;;;;;;5034048;28;20036;-79
2021/07/01 00:48:18;;;;;;;8.00;0.70;;;20.00;81.10;;;;;;5033981;28;20041;-81
2021/07/01 00:50:44;;;;;;;1.63;0.47;;;20.00;80.30;;;;;;5033920;28;20058;-80
2021/07/01 00:53:10;;;;;;;4.30;0.50;;;20.00;79.60;;;;;;5050691;28;20529;-80
2021/07/01 00:55:37;;;;;;;6.35;0.43;;;20.00;79.40;;;;;;5033855;28;20026;-80
2021/07/01 00:58:04;;;;;;;4.88;0.50;;;20.10;79.50;;;;;;5050323;28;20040;-81
2021/07/01 01:03:01;;;;;;;2.35;0.75;;;20.10;78.10;;;;;;5051843;28;20033;-80
2021/07/01 01:05:27;;;;;;;1.55;0.50;;;20.20;78.30;;;;;;5051529;28;20028;-80
2021/07/01 01:07:52;;;;;;;2.03;0.50;;;20.20;78.40;;;;;;5050159;28;20565;-79
2021/07/01 01:10:18;;;;;;;2.30;0.57;;;20.20;78.70;;;;;;5033845;28;20502;-80
2021/07/01 01:12:44;;;;;;;2.85;0.93;;;20.20;78.70;;;;;;5051444;28;20512;-80
2021/07/01 01:15:10;;;;;;;1.42;0.55;;;20.10;79.60;;;;;;5050530;28;20037;-80
2021/07/01 01:17:36;;;;;;;2.28;0.60;;;20.00;80.40;;;;;;5050172;28;20029;-79
2021/07/01 01:20:06;;;;;;;1.60;0.60;;;19.90;81.80;;;;;;5051474;28;20029;-79
2021/07/01 01:22:31;;;;;;;6.38;1.02;;;19.80;82.30;;;;;;5033464;28;20029;-80
2021/07/01 01:24:57;;;;;;;5.18;0.88;;;19.70;82.70;;;;;;5049910;28;20039;-80
2021/07/01 01:27:23;;;;;;;6.68;0.60;;;19.60;83.40;;;;;;5050211;28;20060;-80
2021/07/01 01:29:49;;;;;;;4.45;0.70;;;19.60;83.90;;;;;;5050281;28;20079;-80
2021/07/01 01:32:14;;;;;;;2.13;0.60;;;19.50;85.00;;;;;;5050095;28;20428;-80
2021/07/01 01:34:40;;;;;;;2.55;0.60;;;19.30;85.60;;;;;;5051223;28;20039;-81
2021/07/01 01:37:09;;;;;;;2.17;0.60;;;19.20;85.70;;;;;;5033112;28;20090;-80
2021/07/01 01:39:35;;;;;;;1.85;0.50;;;19.20;87.10;;;;;;5049887;28;20033;-78
2021/07/01 01:42:01;;;;;;;4.13;0.90;;;19.10;86.80;;;;;;5050941;28;20028;-80
2021/07/01 01:44:27;;;;;;;4.25;0.82;;;19.00;86.70;;;;;;5049923;28;20025;-80
2021/07/01 01:46:52;;;;;;;4.30;0.70;;;19.00;86.60;;;;;;5049028;28;20398;-81
2021/07/01 01:49:19;;;;;;;3.95;1.23;;;18.90;86.40;;;;;;5032811;28;20021;-80
2021/07/01 01:51:45;;;;;;;2.05;0.80;;;19.00;86.30;;;;;;5032813;28;20684;-81
2021/07/01 01:54:11;;;;;;;1.02;0.50;;;19.00;86.40;;;;;;5050770;28;20100;-80
2021/07/01 01:56:37;;;;;;;0.82;0.52;;;18.90;86.20;;;;;;5032927;28;20544;-80
2021/07/01 01:59:07;;;;;;;4.50;1.05;;;18.90;86.20;;;;;;5050482;28;20421;-81
2021/07/01 02:01:33;;;;;;;5.93;0.90;;;18.80;86.30;;;;;;5032712;28;20397;-79
2021/07/01 02:03:59;;;;;;;8.55;1.08;;;18.80;87.20;;;;;;5032800;28;20033;-80
2021/07/01 02:06:25;;;;;;;2.00;0.70;;;18.70;87.60;;;;;;5050269;28;20036;-80
2021/07/01 02:08:51;;;;;;;3.38;1.08;;;18.50;88.20;;;;;;5050269;28;20033;-80
2021/07/01 02:11:16;;;;;;;2.67;0.75;;;18.50;88.60;;;;;;5032562;28;20078;-82
2021/07/01 02:13:42;;;;;;;4.07;0.70;;;18.40;89.50;;;;;;5032333;28;20033;-80
2021/07/01 02:16:08;;;;;;;2.75;0.50;;;18.40;89.80;;;;;;5032550;28;20431;-78
2021/07/01 02:18:33;;;;;;;3.97;0.65;;;18.30;89.80;;;;;;5050257;28;20494;-77
2021/07/01 02:20:59;;;;;;;7.75;0.70;;;18.30;90.20;;;;;;5048817;28;20029;-81
2021/07/01 02:23:25;;;;;;;3.40;0.90;;;18.20;90.10;;;;;;5050042;28;20028;-79
2021/07/01 02:25:51;;;;;;;3.15;0.68;;;18.20;90.30;;;;;;5032502;28;20037;-81
2021/07/01 02:28:16;;;;;;;3.65;0.70;;;18.10;90.40;;;;;;5049826;28;20033;-79
2021/07/01 02:30:42;;;;;;;2.47;0.70;;;18.10;90.60;;;;;;5049936;28;20032;-80
2021/07/01 02:33:08;;;;;;;3.33;0.70;;;18.10;90.70;;;;;;5050071;28;20053;-80
2021/07/01 02:35:34;;;;;;;1.55;0.63;;;18.10;90.70;;;;;;5048466;28;20029;-79
2021/07/01 02:38:00;;;;;;;5.95;0.75;;;18.00;90.60;;;;;;5031978;28;20071;-80
2021/07/01 02:40:25;;;;;;;2.08;0.60;;;18.00;90.80;;;;;;5031832;28;20032;-78
2021/07/01 02:42:51;;;;;;;1.27;0.50;;;18.00;90.80;;;;;;5049714;28;20020;-81
2021/07/01 02:45:17;;;;;;;3.53;0.80;;;18.00;90.70;;;;;;5050111;28;20060;-80
2021/07/01 02:47:43;;;;;;;2.25;0.60;;;18.00;90.70;;;;;;5031566;28;20051;-81
2021/07/01 02:50:10;;;;;;;8.73;1.10;;;17.90;90.70;;;;;;5031653;28;20091;-82
2021/07/01 02:52:36;;;;;;;2.13;1.00;;;17.90;90.80;;;;;;5031698;28;20049;-81
2021/07/01 02:55:04;;;;;;;2.28;0.93;;;17.80;90.70;;;;;;5048138;28;20429;-79
2021/07/01 02:57:29;;;;;;;3.08;1.38;;;17.90;90.60;;;;;;5030874;28;20032;-79
2021/07/01 02:59:55;;;;;;;3.22;0.63;;;17.90;90.50;;;;;;5031486;28;20028;-82
2021/07/01 03:02:21;;;;;;;2.03;0.70;;;18.00;90.10;;;;;;5048013;28;20028;-79
2021/07/01 03:04:46;;;;;;;2.03;0.60;;;18.10;89.80;;;;;;5048073;28;20436;-81
2021/07/01 03:07:12;;;;;;;2.22;0.80;;;18.10;89.50;;;;;;5049357;28;20041;-81
2021/07/01 03:09:37;;;;;;;1.25;0.52;;;18.20;89.10;;;;;;5048202;28;20029;-81
2021/07/01 03:12:03;;;;;;;2.72;0.82;;;18.30;87.90;;;;;;5049208;28;20126;-81
2021/07/01 03:14:29;;;;;;;1.60;0.80;;;18.50;87.70;;;;;;5049137;28;20096;-80
2021/07/01 03:16:55;;;;;;;6.55;0.95;;;18.50;87.60;;;;;;5031286;28;20449;-81
2021/07/01 03:19:21;;;;;;;1.48;0.60;;;18.60;87.40;;;;;;5049063;28;20059;-78
2021/07/01 03:21:46;;;;;;;1.90;0.65;;;18.60;87.30;;;;;;5049075;28;20029;-81
2021/07/01 03:24:12;;;;;;;1.92;0.68;;;18.70;87.40;;;;;;5049163;28;20123;-80
2021/07/01 03:26:37;;;;;;;1.30;0.93;;;18.70;87.40;;;;;;5047572;28;20067;-81
2021/07/01 03:29:03;;;;;;;3.10;0.80;;;18.80;87.00;;;;;;5050313;28;20028;-80
2021/07/01 03:31:29;;;;;;;22.42;1.00;;;18.90;86.80;;;;;;5030869;28;20486;-81
2021/07/01 03:33:54;;;;;;;3.50;0.65;;;19.00;86.60;;;;;;5031107;28;20113;-80
2021/07/01 03:36:20;;;;;;;3.47;0.60;;;19.10;85.70;;;;;;5047500;28;20028;-79
2021/07/01 03:38:46;;;;;;;16.63;1.25;;;19.20;85.50;;;;;;5030893;28;20036;-80
2021/07/01 03:41:11;;;;;;;4.45;0.40;;;19.30;85.50;;;;;;5030721;28;20498;-80
2021/07/01 03:43:42;;;;;;;3.30;0.50;;;19.30;85.40;;;;;;5048692;28;20039;-81
2021/07/01 03:46:08;;;;;;;3.88;0.77;;;19.40;85.60;;;;;;5048532;28;20017;-80
2021/07/01 03:48:34;;;;;;;2.30;0.70;;;19.40;85.30;;;;;;5049102;28;20083;-80
2021/07/01 03:51:00;;;;;;;5.15;0.70;;;19.40;85.40;;;;;;5048474;28;20051;-80
2021/07/01 03:53:26;;;;;;;1.80;0.43;;;19.50;85.50;;;;;;5048708;28;20033;-79
2021/07/01 03:55:51;;;;;;;1.98;0.50;;;19.50;85.30;;;;;;5030866;28;20083;-81
2021/07/01 03:58:17;;;;;;;0.93;0.50;;;19.70;84.80;;;;;;5047232;28;20085;-80
2021/07/01 04:00:42;;;;;;;3.50;0.50;;;19.80;84.60;;;;;;5048489;28;20422;-79
2021/07/01 04:03:08;;;;;;;5.57;0.85;;;19.80;84.40;;;;;;5030775;28;20032;-80
2021/07/01 04:05:34;;;;;;;1.42;0.50;;;19.90;84.30;;;;;;5030739;28;20033;-80
2021/07/01 04:07:59;;;;;;;1.13;0.45;;;20.00;84.00;;;;;;5047725;28;20044;-80
2021/07/01 04:10:25;;;;;;;0.70;0.47;;;20.10;83.80;;;;;;5034687;28;20025;-80
2021/07/01 04:12:50;;;;;;;5.47;1.30;;;20.30;84.00;;;;;;5052759;28;20496;-79
2021/07/01 04:15:16;;;;;;;3.50;0.50;;;20.50;82.80;;;;;;5034424;28;20523;-80
2021/07/01 04:17:42;;;;;;;4.57;0.90;;;20.70;82.00;;;;;;5052527;28;20036;-79
2021/07/01 04:20:08;;;;;;;1.73;0.43;;;20.60;82.10;;;;;;5051216;28;20258;-80
2021/07/01 04:22:34;;;;;;;2.17;0.40;;;20.60;82.30;;;;;;5052710;28;20129;-79
2021/07/01 04:25:01;;;;;;;6.50;0.57;;;20.60;82.90;;;;;;5051175;28;20025;-79
2021/07/01 04:27:26;;;;;;;3.83;0.77;;;20.40;83.60;;;;;;5050727;28;20528;-79
2021/07/01 04:29:53;;;;;;;4.07;0.70;;;20.20;84.20;;;;;;5052172;28;20032;-78
2021/07/01 04:32:19;;;;;;;4.60;0.60;;;20.10;85.30;;;;;;5034113;28;20056;-79
2021/07/01 04:34:45;;;;;;;4.03;0.70;;;19.90;85.80;;;;;;5052081;28;20025;-79
2021/07/01 04:37:10;;;;;;;1.13;0.60;;;19.90;86.00;;;;;;5052160;28;20508;-80
2021/07/01 04:39:36;;;;;;;3.00;0.70;;;19.80;86.40;;;;;;5034085;28;20112;-79
2021/07/01 04:42:02;;;;;;;1.75;0.50;;;19.80;86.60;;;;;;5033952;28;20029;-80
2021/07/01 04:44:28;;;;;;;1.88;0.40;;;20.00;85.20;;;;;;5052017;28;20052;-80
2021/07/01 04:46:53;;;;;;;3.13;0.60;;;20.10;85.30;;;;;;5033978;28;20039;-79
2021/07/01 04:49:19;;;;;;;3.05;0.60;;;20.20;84.40;;;;;;5034208;28;20039;-79
2021/07/01 04:51:44;;;;;;;1.58;0.80;;;20.40;84.40;;;;;;5033983;28;20048;-77
2021/07/01 04:54:10;;;;;;;3.10;0.73;;;20.60;84.30;;;;;;5051647;28;20033;-78
2021/07/01 04:56:45;;;;;;;7.18;0.60;;;20.80;83.90;;;;;;5033815;28;20032;-77
2021/07/01 04:59:13;;;;;;;4.95;0.77;;;21.00;83.20;;;;;;5051835;28;20510;-79
2021/07/01 05:01:39;;;;;;;2.55;0.50;;;21.10;81.50;;;;;;5051761;28;20040;-78
2021/07/01 05:04:08;;;;;;;4.90;0.70;;;21.20;81.60;;;;;;5051703;28;20120;-78
2021/07/01 05:06:35;;;;;;;6.18;1.20;;;21.30;81.80;;;;;;5033615;28;20039;-78
2021/07/01 05:09:00;;;;;;;3.60;1.15;;;21.40;81.10;;;;;;5051555;28;20025;-80
2021/07/01 05:11:26;;;;;;;4.95;0.88;;;21.50;80.90;;;;;;5049969;28;20481;-80
2021/07/01 05:13:52;;;;;;;4.97;0.77;;;21.50;80.30;;;;;;5054883;28;20032;-79
2021/07/01 05:16:17;;;;;;;6.63;1.45;;;21.50;80.30;;;;;;5070073;28;20020;-78
2021/07/01 05:18:43;;;;;;;6.18;1.30;;;21.50;80.40;;;;;;5067785;28;20028;-79
2021/07/01 05:21:08;;;;;;;7.10;1.48;;;21.60;80.20;;;;;;5068453;28;20032;-79
2021/07/01 05:23:34;;;;;;;8.02;1.30;;;21.70;79.70;;;;;;5035471;28;20544;-79
2021/07/01 05:26:00;;;;;;;5.82;1.00;;;21.70;79.30;;;;;;5030916;28;20029;-79
2021/07/01 05:28:25;;;;;;;11.93;1.10;;;21.70;79.10;;;;;;5058002;28;20036;-78
2021/07/01 05:30:51;;;;;;;2.47;1.00;;;21.80;78.80;;;;;;5068262;28;20032;-80
2021/07/01 05:33:16;;;;;;;1.95;0.75;;;21.80;79.10;;;;;;5049980;28;20076;-80
2021/07/01 05:35:42;;;;;;;5.05;1.17;;;21.70;78.80;;;;;;5049862;28;20631;-79
2021/07/01 05:38:08;;;;;;;4.45;1.02;;;21.70;79.60;;;;;;5060463;28;20104;-79
2021/07/01 05:40:33;;;;;;;10.13;1.00;;;21.70;79.10;;;;;;5046036;28;20667;-78
2021/07/01 05:43:00;;;;;;;6.72;1.13;;;21.60;79.70;;;;;;5049596;28;20113;-79
2021/07/01 05:45:25;;;;;;;3.78;0.90;;;21.40;80.20;;;;;;5068295;28;20028;-79
2021/07/01 05:47:51;;;;;;;4.72;1.17;;;21.30;80.40;;;;;;5048445;28;20040;-79
2021/07/01 05:50:17;;;;;;;5.18;0.98;;;21.20;80.90;;;;;;5049738;28;20036;-78
2021/07/01 05:52:44;;;;;;;8.88;1.30;;;21.20;81.00;;;;;;5067699;28;20033;-79
2021/07/01 05:55:10;;;;;;;5.47;1.10;;;21.60;81.20;;;;;;5067793;28;20029;-79
2021/07/01 05:57:36;;;;;;;5.78;1.00;;;21.90;79.70;;;;;;5049569;28;20044;-79
2021/07/01 06:00:08;;;;;;;3.90;1.00;;;22.30;77.20;;;;;;5049041;28;20033;-79
2021/07/01 06:02:34;;;;;;;4.03;0.88;;;22.50;75.70;;;;;;5050970;28;20036;-78
2021/07/01 06:05:00;;;;;;;5.47;1.10;;;22.60;76.20;;;;;;5070304;28;20021;-79
2021/07/01 06:07:27;;;;;;;9.30;0.90;;;22.70;75.20;;;;;;5052398;28;20047;-79
2021/07/01 06:09:56;;;;;;;3.47;1.00;;;22.60;75.20;;;;;;5052143;28;20039;-77
2021/07/01 06:12:23;;;;;;;6.15;0.90;;;22.50;76.10;;;;;;5070206;28;20040;-79
2021/07/01 06:14:57;;;;;;;10.20;1.33;;;22.30;77.00;;;;;;5052368;28;20024;-78
2021/07/01 06:17:23;;;;;;;7.47;0.95;;;22.40;77.30;;;;;;5052157;28;20043;-79
2021/07/01 06:19:49;;;;;;;5.65;1.00;;;22.50;77.60;;;;;;5069716;28;20036;-79
2021/07/01 06:22:18;;;;;;;2.58;0.82;;;22.60;77.10;;;;;;5069890;28;20024;-78
2021/07/01 06:24:44;;;;;;;14.02;1.20;;;23.30;75.50;;;;;;5052328;28;20025;-78
2021/07/01 06:27:09;;;;;;;10.15;1.30;;;24.20;71.50;;;;;;5051867;28;20035;-78
2021/07/01 06:29:36;;;;;;;6.97;1.00;;;24.70;69.40;;;;;;5051909;28;20033;-79
2021/07/01 06:32:02;;;;;;;2.30;0.60;;;25.80;66.40;;;;;;5051113;28;20040;-80
2021/07/01 06:34:27;;;;;;;7.32;0.95;;;27.60;60.80;;;;;;5051866;28;20405;-80
2021/07/01 06:36:58;;;;;;;2.15;0.80;;;29.40;55.90;;;;;;5051718;28;20028;-78
2021/07/01 06:39:25;;;;;;;9.05;0.80;;;31.00;50.60;;;;;;5051759;28;20029;-79
2021/07/01 06:41:52;;;;;;;5.63;0.68;;;31.90;46.50;;;;;;5069865;28;20147;-79
2021/07/01 06:44:20;;;;;;;2.40;0.75;;;32.80;44.50;;;;;;5052154;28;20028;-79
2021/07/01 06:46:46;;;;;;;2.05;0.60;;;33.70;42.00;;;;;;5069203;28;20031;-79
2021/07/01 06:49:13;;;;;;;2.53;0.85;;;34.00;40.70;;;;;;5069528;28;20176;-79
2021/07/01 06:51:40;;;;;;;5.13;0.70;;;34.30;39.80;;;;;;5051473;28;20024;-79
2021/07/01 06:54:12;;;;;;;1.98;0.55;;;34.40;39.10;;;;;;5069406;28;20039;-79
2021/07/01 06:56:39;;;;;;;6.80;0.60;;;34.70;38.20;;;;;;5051474;28;20670;-78
2021/07/01 06:59:10;;;;;;;3.50;0.60;;;34.40;38.80;;;;;;5069217;28;20098;-79
2021/07/01 07:01:36;;;;;;;3.78;0.50;;;33.60;40.10;;;;;;5069330;28;20550;-79
2021/07/01 07:04:03;;;;;;;7.40;0.77;;;32.40;41.70;;;;;;5051168;28;20031;-78
2021/07/01 07:06:28;;;;;;;5.13;0.60;;;31.50;43.70;;;;;;5051193;28;20017;-79
2021/07/01 07:08:55;;;;;;;3.58;1.27;;;30.40;46.70;;;;;;5051527;28;20101;-77
2021/07/01 07:11:21;;;;;;;6.18;0.65;;;30.30;48.10;;;;;;5069107;28;20020;-78
2021/07/01 07:13:47;;;;;;;5.57;0.95;;;30.40;47.60;;;;;;5068974;28;20405;-78
2021/07/01 07:16:13;;;;;;;1.17;0.50;;;30.20;47.10;;;;;;5050993;28;20029;-77
2021/07/01 07:18:41;;;;;;;5.20;0.75;;;30.20;47.60;;;;;;5051057;28;20067;-77
2021/07/01 07:21:14;;;;;;;3.72;0.82;;;30.70;45.50;;;;;;5051133;28;20024;-78
2021/07/01 07:23:40;;;;;;;1.58;0.50;;;31.20;45.40;;;;;;5050891;28;20516;-78
2021/07/01 07:26:08;;;;;;;1.30;0.45;;;31.80;44.00;;;;;;5050946;28;20039;-78
2021/07/01 07:28:37;;;;;;;2.67;0.77;;;32.60;42.20;;;;;;5069146;28;20090;-78
2021/07/01 07:31:05;;;;;;;3.38;0.60;;;33.20;41.30;;;;;;5050792;28;20107;-77
2021/07/01 07:33:32;;;;;;;3.58;0.60;;;33.80;39.20;;;;;;5068829;28;20052;-77
2021/07/01 07:35:58;;;;;;;0.55;0.43;;;34.10;38.10;;;;;;5050846;28;20590;-76
2021/07/01 07:38:27;;;;;;;0.57;0.40;;;34.10;38.50;;;;;;5051089;28;20033;-77
2021/07/01 07:40:53;;;;;;;4.20;0.47;;;34.50;37.20;;;;;;5068501;28;20036;-78
2021/07/01 07:43:20;;;;;;;1.27;0.65;;;34.60;36.50;;;;;;5068646;28;20048;-77
2021/07/01 07:45:52;;;;;;;2.22;0.70;;;34.50;37.00;;;;;;5068599;28;20070;-77
2021/07/01 07:48:19;;;;;;;1.52;0.50;;;34.60;36.60;;;;;;5050631;28;20497;-77
2021/07/01 07:51:03;;;;;;;3.78;0.50;;;34.70;37.00;;;;;;5068657;28;20046;-78
2021/07/01 07:53:33;;;;;;;2.05;0.73;;;34.80;36.20;;;;;;5050459;28;20024;-78
2021/07/01 07:56:07;;;;;;;6.57;0.50;;;34.90;36.60;;;;;;5068575;28;20141;-78
2021/07/01 07:58:39;;;;;;;8.05;0.93;;;35.10;36.10;;;;;;5068705;28;20091;-78
2021/07/01 08:01:08;;;;;;;8.10;0.60;;;35.30;36.30;;;;;;5068561;28;20526;-78
2021/07/01 08:03:37;;;;;;;8.98;0.98;;;35.50;35.60;;;;;;5050376;28;20024;-79
2021/07/01 08:06:07;;;;;;;10.13;0.50;;;35.20;35.80;;;;;;5068623;28;20058;-79
2021/07/01 08:08:37;;;;;;;0.63;0.40;;;35.40;35.40;;;;;;5050452;28;20044;-79
2021/07/01 08:11:08;;;;;;;0.95;0.60;;;35.40;34.80;;;;;;5050259;28;20028;-79
2021/07/01 08:13:38;;;;;;;2.42;0.60;;;35.40;34.70;;;;;;5050380;28;20043;-79
2021/07/01 08:16:05;;;;;;;2.33;0.65;;;35.20;34.80;;;;;;5068380;28;20047;-78
2021/07/01 08:18:32;;;;;;;4.10;0.50;;;35.10;35.50;;;;;;5067759;28;20582;-79
2021/07/01 08:21:00;;;;;;;5.18;0.57;;;35.20;35.40;;;;;;5068322;28;20027;-77
2021/07/01 08:23:25;;;;;;;3.40;0.70;;;35.40;34.80;;;;;;5050342;28;20041;-78
2021/07/01 08:25:54;;;;;;;6.82;0.52;;;35.20;35.90;;;;;;5050225;28;20028;-79
2021/07/01 08:28:21;;;;;;;2.38;0.40;;;35.50;34.60;;;;;;5068139;28;20638;-79
2021/07/01 08:30:48;;;;;;;4.20;0.60;;;35.60;35.00;;;;;;5050112;28;20078;-79
2021/07/01 08:33:18;;;;;;;2.55;0.50;;;35.40;35.10;;;;;;5051593;28;20052;-79
2021/07/01 08:35:51;;;;;;;1.33;0.52;;;35.20;35.20;;;;;;5068177;28;20021;-79
2021/07/01 08:38:17;;;;;;;5.72;0.60;;;35.30;35.30;;;;;;5050184;28;20029;-79
2021/07/01 08:40:46;;;;;;;1.35;0.50;;;35.60;35.60;;;;;;5050099;28;20028;-79
2021/07/01 08:43:18;;;;;;;2.88;0.50;;;35.60;34.60;;;;;;5050209;28;20408;-79
2021/07/01 08:45:58;;;;;;;2.30;0.68;;;35.60;34.50;;;;;;5068036;28;20035;-79
2021/07/01 08:48:25;;;;;;;4.85;0.60;;;35.20;34.80;;;;;;5067869;28;20036;-79
2021/07/01 08:51:00;;;;;;;1.48;0.55;;;35.20;35.10;;;;;;5050095;28;20566;-79
2021/07/01 08:53:50;;;;;;;8.93;0.60;;;35.40;35.40;;;;;;5068057;28;20548;-78
2021/07/01 08:56:18;;;;;;;1.95;0.70;;;35.40;35.40;;;;;;5071629;28;20396;-79
2021/07/01 08:58:47;;;;;;;1.90;0.70;;;35.60;34.90;;;;;;5053626;28;20046;-80
2021/07/01 09:01:16;;;;;;;2.63;0.50;;;35.70;34.20;;;;;;5053701;28;20032;-79
2021/07/01 09:03:44;;;;;;;1.38;0.50;;;35.90;34.00;;;;;;5053628;28;20029;-79
2021/07/01 09:06:22;;;;;;;2.35;0.43;;;35.70;33.90;;;;;;5071323;28;20412;-79
2021/07/01 09:08:49;;;;;;;2.33;0.52;;;35.70;33.70;;;;;;5053385;28;20179;-78
2021/07/01 09:11:18;;;;;;;3.30;0.40;;;35.50;34.00;;;;;;5071495;28;20154;-77
2021/07/01 09:13:49;;;;;;;3.80;0.80;;;35.60;34.50;;;;;;5071308;28;20023;-79
2021/07/01 09:16:16;;;;;;;5.78;0.70;;;35.50;34.20;;;;;;5053286;28;20025;-79
2021/07/01 09:18:45;;;;;;;2.80;1.00;;;35.60;35.00;;;;;;5071140;28;20047;-80
2021/07/01 09:21:12;;;;;;;3.88;0.75;;;35.60;35.00;;;;;;5053311;28;20029;-79
2021/07/01 09:23:45;;;;;;;3.30;0.60;;;35.50;35.10;;;;;;5071198;28;20025;-79
2021/07/01 09:26:22;;;;;;;2.08;0.70;;;35.60;35.00;;;;;;5071197;28;20028;-78
2021/07/01 09:28:52;;;;;;;1.48;0.60;;;35.90;34.30;;;;;;5052484;28;20029;-79
2021/07/01 09:31:20;;;;;;;1.80;0.50;;;35.90;34.40;;;;;;5051930;28;20137;-79
2021/07/01 09:33:48;;;;;;;3.42;0.40;;;36.10;34.40;;;;;;5070123;28;20044;-79
2021/07/01 09:36:15;;;;;;;1.67;0.50;;;36.10;33.30;;;;;;5052087;28;20035;-77
2021/07/01 09:38:45;;;;;;;2.80;0.50;;;36.20;33.30;;;;;;5052108;28;20023;-77
2021/07/01 09:41:12;;;;;;;1.10;0.73;;;36.00;32.90;;;;;;5070150;28;20085;-78
2021/07/01 09:43:45;;;;;;;2.92;0.40;;;36.10;33.20;;;;;;5052539;28;20029;-78
2021/07/01 09:46:17;;;;;;;8.30;0.68;;;36.00;33.10;;;;;;5052702;28;20029;-78
2021/07/01 09:48:47;;;;;;;2.08;0.60;;;35.90;33.00;;;;;;5070628;28;20409;-79
2021/07/01 09:51:14;;;;;;;3.97;0.75;;;36.10;33.20;;;;;;5052800;28;20028;-80
2021/07/01 09:53:40;;;;;;;4.47;0.70;;;36.00;34.00;;;;;;5070402;28;20040;-79
2021/07/01 09:56:08;;;;;;;3.42;0.50;;;35.90;33.60;;;;;;5071063;28;20029;-79
2021/07/01 09:58:43;;;;;;;4.70;0.80;;;36.00;33.30;;;;;;5070480;28;20029;-77
2021/07/01 10:01:22;;;;;;;6.82;0.80;;;36.00;33.10;;;;;;5052742;28;20027;-79
2021/07/01 10:03:52;;;;;;;1.73;0.50;;;35.70;33.40;;;;;;5052591;28;20025;-77
2021/07/01 10:06:18;;;;;;;1.35;0.45;;;35.30;34.30;;;;;;5051600;28;20060;-78
2021/07/01 10:08:44;;;;;;;3.13;0.70;;;35.00;34.60;;;;;;5070136;28;20075;-78
2021/07/01 10:11:10;;;;;;;1.67;0.47;;;34.70;34.00;;;;;;5070355;28;20021;-79
2021/07/01 10:13:36;;;;;;;2.33;0.60;;;34.20;35.00;;;;;;5052205;28;20025;-80
2021/07/01 10:16:03;;;;;;;3.35;0.50;;;33.70;35.50;;;;;;5052186;28;20119;-78
2021/07/01 10:18:40;;;;;;;0.70;0.50;;;33.40;36.00;;;;;;5051767;28;20508;-79
2021/07/01 10:21:16;;;;;;;1.83;0.40;;;33.10;37.10;;;;;;5069863;28;20021;-80
2021/07/01 10:23:41;;;;;;;4.63;0.63;;;32.90;38.60;;;;;;5070134;28;20307;-80
2021/07/01 10:26:13;;;;;;;6.63;0.50;;;32.70;38.50;;;;;;5070012;28;20073;-79
2021/07/01 10:28:40;;;;;;;1.70;0.40;;;32.40;38.50;;;;;;5069678;28;20528;-79
2021/07/01 10:31:08;;;;;;;4.50;0.50;;;32.10;38.60;;;;;;5051781;28;20463;-79
2021/07/01 10:33:35;;;;;;;0.73;0.40;;;32.00;39.00;;;;;;5069948;28;20105;-79
2021/07/01 10:36:04;;;;;;;4.13;0.65;;;31.70;39.10;;;;;;5069793;28;20850;-78
2021/07/01 10:38:55;;;;;;;3.85;0.50;;;31.40;38.80;;;;;;5060913;28;20036;-78
2021/07/01 10:41:32;;;;;;;1.75;0.50;;;31.30;39.50;;;;;;5068478;28;20020;-79
2021/07/01 10:44:01;;;;;;;2.40;0.40;;;30.90;40.10;;;;;;5064277;28;20048;-80
2021/07/01 10:46:42;;;;;;;6.03;0.60;;;30.70;40.50;;;;;;5049971;28;20090;-79
2021/07/01 10:49:08;;;;;;;1.13;0.38;;;30.70;40.70;;;;;;5068124;28;20048;-79
2021/07/01 10:51:35;;;;;;;4.88;0.47;;;30.50;40.40;;;;;;5068229;28;20102;-78
2021/07/01 10:54:11;;;;;;;4.40;0.43;;;30.40;40.90;;;;;;5049370;28;20036;-79
2021/07/01 10:56:41;;;;;;;0.98;0.45;;;30.50;41.10;;;;;;5063639;28;20024;-79
2021/07/01 10:59:08;;;;;;;0.50;0.40;;;30.40;41.10;;;;;;5067912;28;20036;-79
2021/07/01 11:01:37;;;;;;;2.05;0.47;;;30.30;41.60;;;;;;5068779;28;20043;-79
2021/07/01 11:04:29;;;;;;;2.38;0.40;;;30.20;40.70;;;;;;5051704;28;20039;-78
2021/07/01 11:07:04;;;;;;;3.03;0.52;;;30.10;40.80;;;;;;5067924;28;20106;-77
2021/07/01 11:09:43;;;;;;;2.70;0.50;;;30.10;41.30;;;;;;5049704;28;20896;-78
2021/07/01 11:12:10;;;;;;;1.25;0.40;;;30.20;40.70;;;;;;5074530;28;20115;-78
2021/07/01 11:14:40;;;;;;;1.30;0.40;;;30.40;40.40;;;;;;5050216;28;20580;-79
2021/07/01 11:17:07;;;;;;;2.83;0.38;;;30.40;39.80;;;;;;5046029;28;20116;-78
2021/07/01 11:20:11;;;;;;;1.17;0.38;;;30.50;40.00;;;;;;5073545;28;20042;-78
2021/07/01 11:22:51;;;;;;;1.27;0.30;;;30.50;39.80;;;;;;5056442;28;20379;-78
2021/07/01 11:25:40;;;;;;;4.25;0.40;;;30.50;39.80;;;;;;5044357;28;20034;-77
2021/07/01 11:28:26;;;;;;;1.70;0.50;;;30.50;39.40;;;;;;5042931;28;20036;-78
2021/07/01 11:31:00;;;;;;;8.35;0.63;;;30.50;39.30;;;;;;5040107;28;20044;-79
2021/07/01 11:33:31;;;;;;;5.97;0.50;;;30.50;39.50;;;;;;5043802;28;20056;-78
2021/07/01 11:36:17;;;;;;;3.33;0.40;;;30.40;40.10;;;;;;5036523;28;20071;-77
2021/07/01 11:38:45;;;;;;;3.92;0.30;;;30.40;39.20;;;;;;5043427;28;20066;-77
2021/07/01 11:41:11;;;;;;;4.28;0.45;;;30.50;39.40;;;;;;5041519;28;20521;-77
2021/07/01 11:43:39;;;;;;;2.30;0.40;;;30.60;38.00;;;;;;5040353;28;20522;-79
2021/07/01 11:46:05;;;;;;;2.75;0.40;;;30.60;38.10;;;;;;5060450;28;20115;-79
2021/07/01 11:48:33;;;;;;;0.50;0.30;;;30.50;37.70;;;;;;5065554;28;20025;-79
2021/07/01 11:51:01;;;;;;;1.48;0.40;;;30.50;37.30;;;;;;5058410;28;20036;-79
2021/07/01 11:53:28;;;;;;;1.02;0.40;;;30.40;37.20;;;;;;5066490;28;20501;-79
2021/07/01 11:55:59;;;;;;;1.05;0.40;;;30.40;37.40;;;;;;5060249;28;20043;-78
2021/07/01 11:58:26;;;;;;;0.82;0.38;;;30.40;38.00;;;;;;5044595;28;20044;-78
2021/07/01 12:00:53;;;;;;;0.55;0.30;;;30.40;38.10;;;;;;5043685;28;20119;-78
2021/07/01 12:03:20;;;;;;;1.02;0.38;;;30.40;37.90;;;;;;5037332;28;20037;-78
2021/07/01 12:05:52;;;;;;;4.80;0.30;;;30.30;37.60;;;;;;5058496;28;20120;-78
2021/07/01 12:08:18;;;;;;;8.90;0.50;;;30.30;37.30;;;;;;5063254;28;20043;-78
2021/07/01 12:10:44;;;;;;;2.63;0.57;;;30.20;37.30;;;;;;5062107;28;20052;-79
2021/07/01 12:13:31;;;;;;;5.45;0.60;;;30.20;37.50;;;;;;5048138;28;20114;-79
2021/07/01 12:16:08;;;;;;;2.95;0.43;;;30.20;37.40;;;;;;5058803;28;20151;-78
2021/07/01 12:18:59;;;;;;;2.53;0.30;;;30.20;36.80;;;;;;5058949;28;20420;-80
2021/07/01 12:21:25;;;;;;;1.05;0.40;;;30.10;37.70;;;;;;5065728;28;20166;-79
2021/07/01 12:23:56;;;;;;;2.25;0.40;;;30.00;37.40;;;;;;5065115;28;20108;-77
2021/07/01 12:26:39;;;;;;;3.67;0.40;;;30.00;36.90;;;;;;5047168;28;20170;-79
2021/07/01 12:29:20;;;;;;;4.13;0.40;;;30.00;36.20;;;;;;5068348;28;20036;-79
2021/07/01 12:31:47;;;;;;;3.00;0.40;;;30.00;35.90;;;;;;5071819;28;20053;-78
2021/07/01 12:34:19;;;;;;;3.60;0.40;;;30.00;35.20;;;;;;5072252;28;20818;-79
2021/07/01 12:36:56;;;;;;;6.00;0.30;;;29.90;35.10;;;;;;5071440;28;20048;-79
2021/07/01 12:39:25;;;;;;;2.28;0.40;;;29.80;35.60;;;;;;5052201;28;20857;-78
2021/07/01 12:42:17;;;;;;;2.80;0.40;;;29.70;35.40;;;;;;5049352;28;20086;-79
2021/07/01 12:44:44;;;;;;;1.67;0.38;;;29.70;34.10;;;;;;5066595;28;20068;-78
2021/07/01 12:47:31;;;;;;;59.72;1.30;;;29.70;33.90;;;;;;5052993;28;20024;-79
2021/07/01 12:49:59;;;;;;;0.82;0.30;;;29.60;34.40;;;;;;5070956;28;20025;-79
2021/07/01 12:52:34;;;;;;;0.80;0.30;;;29.60;34.90;;;;;;5071348;28;20493;-78
2021/07/01 12:55:01;;;;;;;0.25;0.22;;;29.60;33.90;;;;;;5052485;28;20027;-79